sensor_id;sensor_type;location;lat;lon;timestamp;pressure;altitude;pressure_sealevel;temperature;humidity
33697;BME280;20031;43.416;23.232;2022-11-11T00:00:11;101225.44;;;9.25;87.57
33697;BME280;20031;43.416;23.232;2022-11-11T00:02:36;101223.06;;;9.33;87.88
33697;BME280;20031;43.416;23.232;2022-11-11T00:05:02;101214.75;;;9.39;87.54
33697;BME280;20031;43.416;23.232;2022-11-11T00:07:27;101221.84;;;9.48;87.90
33697;BME280;20031;43.416;23.232;2022-11-11T00:09:53;101219.56;;;9.54;87.69
33697;BME280;20031;43.416;23.232;2022-11-11T00:12:18;101212.34;;;9.58;88.37
33697;BME280;20031;43.416;23.232;2022-11-11T00:14:44;101209.50;;;9.61;88.31
33697;BME280;20031;43.416;23.232;2022-11-11T00:17:11;101210.31;;;9.61;88.70
33697;BME280;20031;43.416;23.232;2022-11-11T00:19:55;101211.84;;;9.64;88.64
33697;BME280;20031;43.416;23.232;2022-11-11T00:22:39;101210.91;;;9.65;88.82
33697;BME280;20031;43.416;23.232;2022-11-11T00:25:23;101211.72;;;9.65;88.90
33697;BME280;20031;43.416;23.232;2022-11-11T00:27:49;101213.25;;;9.67;89.17
33697;BME280;20031;43.416;23.232;2022-11-11T00:30:14;101207.22;;;9.67;89.21
33697;BME280;20031;43.416;23.232;2022-11-11T00:32:40;101198.47;;;9.68;88.93
33697;BME280;20031;43.416;23.232;2022-11-11T00:35:05;101203.66;;;9.68;89.12
33697;BME280;20031;43.416;23.232;2022-11-11T00:37:49;101201.06;;;9.68;88.86
33697;BME280;20031;43.416;23.232;2022-11-11T00:40:15;101202.84;;;9.67;88.77
33697;BME280;20031;43.416;23.232;2022-11-11T00:42:41;101201.19;;;9.66;88.50
33697;BME280;20031;43.416;23.232;2022-11-11T00:45:07;101202.84;;;9.67;88.09
33697;BME280;20031;43.416;23.232;2022-11-11T00:47:33;101204.47;;;9.68;87.94
33697;BME280;20031;43.416;23.232;2022-11-11T00:50:20;101193.28;;;9.68;88.04
33697;BME280;20031;43.416;23.232;2022-11-11T00:53:11;101200.38;;;9.66;87.90
33697;BME280;20031;43.416;23.232;2022-11-11T00:55:37;101197.69;;;9.57;87.71
33697;BME280;20031;43.416;23.232;2022-11-11T00:58:03;101193.38;;;9.46;87.24
33697;BME280;20031;43.416;23.232;2022-11-11T01:00:29;101187.00;;;9.39;87.69
33697;BME280;20031;43.416;23.232;2022-11-11T01:02:56;101187.00;;;9.39;87.48
33697;BME280;20031;43.416;23.232;2022-11-11T01:05:21;101189.84;;;9.36;87.15
33697;BME280;20031;43.416;23.232;2022-11-11T01:07:50;101187.84;;;9.29;87.20
33697;BME280;20031;43.416;23.232;2022-11-11T01:10:17;101194.28;;;9.14;86.81
33697;BME280;20031;43.416;23.232;2022-11-11T01:13:03;101186.38;;;9.05;86.82
33697;BME280;20031;43.416;23.232;2022-11-11T01:15:40;101184.97;;;9.01;87.30
33697;BME280;20031;43.416;23.232;2022-11-11T01:18:06;101191.50;;;8.95;86.97
33697;BME280;20031;43.416;23.232;2022-11-11T01:20:32;101194.31;;;8.92;86.69
33697;BME280;20031;43.416;23.232;2022-11-11T01:22:57;101196.31;;;8.89;86.99
33697;BME280;20031;43.416;23.232;2022-11-11T01:25:23;101190.56;;;8.85;86.80
33697;BME280;20031;43.416;23.232;2022-11-11T01:27:48;101199.28;;;8.84;86.71
33697;BME280;20031;43.416;23.232;2022-11-11T01:30:14;101196.31;;;8.78;86.72
33697;BME280;20031;43.416;23.232;2022-11-11T01:32:40;101199.28;;;8.73;87.13
33697;BME280;20031;43.416;23.232;2022-11-11T01:35:06;101190.69;;;8.73;86.79
33697;BME280;20031;43.416;23.232;2022-11-11T01:37:32;101195.28;;;8.69;86.87
33697;BME280;20031;43.416;23.232;2022-11-11T01:39:58;101193.53;;;8.70;86.95
33697;BME280;20031;43.416;23.232;2022-11-11T01:42:23;101182.16;;;8.71;87.25
33697;BME280;20031;43.416;23.232;2022-11-11T01:44:49;101183.81;;;8.72;86.78
33697;BME280;20031;43.416;23.232;2022-11-11T01:47:15;101175.91;;;8.73;87.46
33697;BME280;20031;43.416;23.232;2022-11-11T01:52:24;101188.91;;;8.73;87.25
33697;BME280;20031;43.416;23.232;2022-11-11T01:55:07;101188.91;;;8.73;87.60
33697;BME280;20031;43.416;23.232;2022-11-11T01:57:38;101193.03;;;8.76;87.93
33697;BME280;20031;43.416;23.232;2022-11-11T02:00:15;101197.88;;;8.80;87.56
33697;BME280;20031;43.416;23.232;2022-11-11T02:05:17;101196.31;;;8.78;86.97
33697;BME280;20031;43.416;23.232;2022-11-11T02:08:06;101200.81;;;8.76;87.20
33697;BME280;20031;43.416;23.232;2022-11-11T02:10:33;101194.56;;;8.78;87.49
33697;BME280;20031;43.416;23.232;2022-11-11T02:12:59;101197.63;;;8.83;87.84
33697;BME280;20031;43.416;23.232;2022-11-11T02:15:43;101212.50;;;8.92;87.52
33697;BME280;20031;43.416;23.232;2022-11-11T02:18:09;101208.72;;;8.96;87.55
33697;BME280;20031;43.416;23.232;2022-11-11T02:20:40;101198.69;;;9.03;87.50
33697;BME280;20031;43.416;23.232;2022-11-11T02:25:39;101192.63;;;9.02;87.44
33697;BME280;20031;43.416;23.232;2022-11-11T02:28:08;101195.72;;;9.07;87.51
33697;BME280;20031;43.416;23.232;2022-11-11T02:30:33;101189.56;;;9.08;87.24
33697;BME280;20031;43.416;23.232;2022-11-11T02:32:59;101176.34;;;9.11;87.24
33697;BME280;20031;43.416;23.232;2022-11-11T02:35:36;101186.81;;;9.20;87.47
33697;BME280;20031;43.416;23.232;2022-11-11T02:38:04;101183.16;;;9.23;87.62
33697;BME280;20031;43.416;23.232;2022-11-11T02:40:39;101187.72;;;9.30;87.75
33697;BME280;20031;43.416;23.232;2022-11-11T02:43:32;101190.78;;;9.35;87.37
33697;BME280;20031;43.416;23.232;2022-11-11T02:45:59;101190.41;;;9.40;87.29
33697;BME280;20031;43.416;23.232;2022-11-11T02:48:25;101190.53;;;9.38;87.02
33697;BME280;20031;43.416;23.232;2022-11-11T02:50:51;101193.72;;;9.42;87.27
33697;BME280;20031;43.416;23.232;2022-11-11T02:53:17;101198.69;;;9.45;87.25
33697;BME280;20031;43.416;23.232;2022-11-11T02:55:43;101198.56;;;9.46;86.79
33697;BME280;20031;43.416;23.232;2022-11-11T02:58:09;101198.56;;;9.46;86.90
33697;BME280;20031;43.416;23.232;2022-11-11T03:00:34;101190.66;;;9.48;87.27
33697;BME280;20031;43.416;23.232;2022-11-11T03:03:00;101192.75;;;9.54;86.86
33697;BME280;20031;43.416;23.232;2022-11-11T03:05:25;101197.00;;;9.55;86.69
33697;BME280;20031;43.416;23.232;2022-11-11T03:07:51;101201.81;;;9.59;86.88
33697;BME280;20031;43.416;23.232;2022-11-11T03:10:16;101199.47;;;9.56;86.71
33697;BME280;20031;43.416;23.232;2022-11-11T03:12:42;101194.84;;;9.60;86.75
33697;BME280;20031;43.416;23.232;2022-11-11T03:15:08;101206.53;;;9.65;87.08
33697;BME280;20031;43.416;23.232;2022-11-11T03:17:33;101210.06;;;9.64;86.49
33697;BME280;20031;43.416;23.232;2022-11-11T03:20:16;101212.53;;;9.65;86.43
33697;BME280;20031;43.416;23.232;2022-11-11T03:23:07;101215.25;;;9.64;86.21
33697;BME280;20031;43.416;23.232;2022-11-11T03:25:36;101222.50;;;9.61;86.53
33697;BME280;20031;43.416;23.232;2022-11-11T03:28:16;101224.25;;;9.60;86.63
33697;BME280;20031;43.416;23.232;2022-11-11T03:30:44;101232.91;;;9.61;86.62
33697;BME280;20031;43.416;23.232;2022-11-11T03:33:11;101230.69;;;9.56;86.45
33697;BME280;20031;43.416;23.232;2022-11-11T03:35:37;101210.94;;;9.54;86.62
33697;BME280;20031;43.416;23.232;2022-11-11T03:38:05;101215.78;;;9.58;86.54
33697;BME280;20031;43.416;23.232;2022-11-11T03:40:50;101219.44;;;9.56;86.26
33697;BME280;20031;43.416;23.232;2022-11-11T03:43:17;101218.50;;;9.57;86.85
33697;BME280;20031;43.416;23.232;2022-11-11T03:45:44;101227.22;;;9.56;86.83
33697;BME280;20031;43.416;23.232;2022-11-11T03:48:10;101227.34;;;9.54;86.56
33697;BME280;20031;43.416;23.232;2022-11-11T03:50:36;101220.41;;;9.55;86.66
33697;BME280;20031;43.416;23.232;2022-11-11T03:53:02;101224.38;;;9.59;87.17
33697;BME280;20031;43.416;23.232;2022-11-11T03:55:28;101222.38;;;9.62;86.91
33697;BME280;20031;43.416;23.232;2022-11-11T03:57:53;101238.59;;;9.55;86.36
33697;BME280;20031;43.416;23.232;2022-11-11T04:00:24;101223.94;;;9.54;86.32
33697;BME280;20031;43.416;23.232;2022-11-11T04:02:50;101228.22;;;9.55;86.78
33697;BME280;20031;43.416;23.232;2022-11-11T04:05:34;101225.00;;;9.51;86.85
33697;BME280;20031;43.416;23.232;2022-11-11T04:08:20;101236.94;;;9.54;87.42
33697;BME280;20031;43.416;23.232;2022-11-11T04:11:18;101238.69;;;9.53;87.19
33697;BME280;20031;43.416;23.232;2022-11-11T04:13:47;101240.00;;;9.59;87.00
33697;BME280;20031;43.416;23.232;2022-11-11T04:16:31;101255.34;;;9.62;87.00
33697;BME280;20031;43.416;23.232;2022-11-11T04:18:57;101249.94;;;9.65;86.96
33697;BME280;20031;43.416;23.232;2022-11-11T04:21:41;101248.81;;;9.67;87.42
33697;BME280;20031;43.416;23.232;2022-11-11T04:26:55;101263.13;;;9.72;87.51
33697;BME280;20031;43.416;23.232;2022-11-11T04:29:22;101257.66;;;9.75;87.26
33697;BME280;20031;43.416;23.232;2022-11-11T04:32:07;101261.94;;;9.76;86.97
33697;BME280;20031;43.416;23.232;2022-11-11T04:34:53;101267.56;;;9.81;86.91
33697;BME280;20031;43.416;23.232;2022-11-11T04:37:20;101270.88;;;9.83;87.39
33697;BME280;20031;43.416;23.232;2022-11-11T04:39:46;101273.25;;;9.86;86.81
33697;BME280;20031;43.416;23.232;2022-11-11T04:42:31;101270.63;;;9.86;86.96
33697;BME280;20031;43.416;23.232;2022-11-11T04:45:00;101265.69;;;9.83;86.62
33697;BME280;20031;43.416;23.232;2022-11-11T04:48:01;101270.16;;;9.81;86.54
33697;BME280;20031;43.416;23.232;2022-11-11T04:50:44;101283.94;;;9.72;86.88
33697;BME280;20031;43.416;23.232;2022-11-11T04:53:13;101288.44;;;9.70;86.94
33697;BME280;20031;43.416;23.232;2022-11-11T04:55:40;101295.28;;;9.71;87.18
33697;BME280;20031;43.416;23.232;2022-11-11T04:58:30;101294.09;;;9.75;87.15
33697;BME280;20031;43.416;23.232;2022-11-11T05:00:55;101297.97;;;9.81;87.55
33697;BME280;20031;43.416;23.232;2022-11-11T05:03:21;101301.88;;;9.86;87.28
33697;BME280;20031;43.416;23.232;2022-11-11T05:05:51;101313.09;;;9.87;87.07
33697;BME280;20031;43.416;23.232;2022-11-11T05:08:38;101310.34;;;9.88;87.54
33697;BME280;20031;43.416;23.232;2022-11-11T05:11:30;101312.72;;;9.91;87.42
33697;BME280;20031;43.416;23.232;2022-11-11T05:14:03;101313.56;;;9.92;87.26
33697;BME280;20031;43.416;23.232;2022-11-11T05:16:53;101329.28;;;9.90;87.26
33697;BME280;20031;43.416;23.232;2022-11-11T05:19:37;101329.28;;;9.90;87.46
33697;BME280;20031;43.416;23.232;2022-11-11T05:22:28;101329.84;;;9.94;87.97
33697;BME280;20031;43.416;23.232;2022-11-11T05:24:54;101330.63;;;9.96;87.59
33697;BME280;20031;43.416;23.232;2022-11-11T05:27:39;101336.63;;;9.96;87.91
33697;BME280;20031;43.416;23.232;2022-11-11T05:30:06;101339.13;;;9.98;87.83
33697;BME280;20031;43.416;23.232;2022-11-11T05:32:32;101345.00;;;10.00;87.50
33697;BME280;20031;43.416;23.232;2022-11-11T05:34:57;101348.47;;;10.00;88.09
33697;BME280;20031;43.416;23.232;2022-11-11T05:37:23;101349.53;;;9.98;87.93
33697;BME280;20031;43.416;23.232;2022-11-11T05:39:48;101353.41;;;9.92;87.91
33697;BME280;20031;43.416;23.232;2022-11-11T05:42:14;101367.47;;;9.90;87.65
33697;BME280;20031;43.416;23.232;2022-11-11T05:44:39;101363.72;;;9.83;87.88
33697;BME280;20031;43.416;23.232;2022-11-11T05:47:05;101367.53;;;9.79;87.57
33697;BME280;20031;43.416;23.232;2022-11-11T05:49:31;101368.34;;;9.79;87.91
33697;BME280;20031;43.416;23.232;2022-11-11T05:51:56;101373.09;;;9.74;87.62
33697;BME280;20031;43.416;23.232;2022-11-11T05:54:22;101370.59;;;9.73;87.75
33697;BME280;20031;43.416;23.232;2022-11-11T05:56:47;101376.88;;;9.70;88.11
33697;BME280;20031;43.416;23.232;2022-11-11T05:59:13;101381.09;;;9.71;88.32
33697;BME280;20031;43.416;23.232;2022-11-11T06:01:38;101381.09;;;9.71;87.87
33697;BME280;20031;43.416;23.232;2022-11-11T06:04:04;101380.19;;;9.72;88.29
33697;BME280;20031;43.416;23.232;2022-11-11T06:06:31;101390.69;;;9.71;88.36
33697;BME280;20031;43.416;23.232;2022-11-11T06:08:57;101395.91;;;9.71;88.15
33697;BME280;20031;43.416;23.232;2022-11-11T06:11:23;101394.13;;;9.71;88.44
33697;BME280;20031;43.416;23.232;2022-11-11T06:13:48;101406.91;;;9.74;88.55
33697;BME280;20031;43.416;23.232;2022-11-11T06:16:14;101403.09;;;9.78;88.41
33697;BME280;20031;43.416;23.232;2022-11-11T06:18:40;101407.25;;;9.81;88.19
33697;BME280;20031;43.416;23.232;2022-11-11T06:21:05;101402.63;;;9.84;88.29
33697;BME280;20031;43.416;23.232;2022-11-11T06:23:31;101410.19;;;9.98;88.81
33697;BME280;20031;43.416;23.232;2022-11-11T06:25:57;101415.44;;;10.29;88.90
33697;BME280;20031;43.416;23.232;2022-11-11T06:28:49;101421.09;;;10.66;88.77
33697;BME280;20031;43.416;23.232;2022-11-11T06:31:17;101424.28;;;10.89;88.22
33697;BME280;20031;43.416;23.232;2022-11-11T06:33:44;101435.78;;;11.07;88.05
33697;BME280;20031;43.416;23.232;2022-11-11T06:36:11;101426.72;;;11.31;88.02
33697;BME280;20031;43.416;23.232;2022-11-11T06:38:40;101436.38;;;11.61;87.80
33697;BME280;20031;43.416;23.232;2022-11-11T06:41:06;101444.44;;;11.87;87.23
33697;BME280;20031;43.416;23.232;2022-11-11T06:43:32;101443.44;;;12.18;86.91
33697;BME280;20031;43.416;23.232;2022-11-11T06:45:58;101448.94;;;12.43;86.51
33697;BME280;20031;43.416;23.232;2022-11-11T06:48:25;101444.84;;;12.60;85.37
33697;BME280;20031;43.416;23.232;2022-11-11T06:50:51;101445.50;;;12.62;84.65
33697;BME280;20031;43.416;23.232;2022-11-11T06:53:18;101457.22;;;12.67;84.11
33697;BME280;20031;43.416;23.232;2022-11-11T06:55:44;101450.63;;;12.73;83.57
33697;BME280;20031;43.416;23.232;2022-11-11T06:58:14;101460.50;;;12.78;83.05
33697;BME280;20031;43.416;23.232;2022-11-11T07:00:44;101461.66;;;12.85;83.02
33697;BME280;20031;43.416;23.232;2022-11-11T07:03:12;101457.78;;;12.89;81.70
33697;BME280;20031;43.416;23.232;2022-11-11T07:05:38;101467.03;;;12.93;81.87
33697;BME280;20031;43.416;23.232;2022-11-11T07:08:06;101463.03;;;12.99;81.22
33697;BME280;20031;43.416;23.232;2022-11-11T07:10:34;101467.41;;;13.08;80.84
33697;BME280;20031;43.416;23.232;2022-11-11T07:13:00;101475.13;;;13.19;80.91
33697;BME280;20031;43.416;23.232;2022-11-11T07:15:26;101472.88;;;13.33;80.52
33697;BME280;20031;43.416;23.232;2022-11-11T07:17:52;101477.25;;;13.42;79.65
33697;BME280;20031;43.416;23.232;2022-11-11T07:20:17;101479.66;;;13.62;79.69
33697;BME280;20031;43.416;23.232;2022-11-11T07:22:42;101474.78;;;14.03;78.98
33697;BME280;20031;43.416;23.232;2022-11-11T07:25:08;101480.78;;;14.49;77.50
33697;BME280;20031;43.416;23.232;2022-11-11T07:27:38;101481.97;;;14.55;74.22
33697;BME280;20031;43.416;23.232;2022-11-11T07:30:04;101486.47;;;14.62;72.89
33697;BME280;20031;43.416;23.232;2022-11-11T07:32:30;101483.63;;;14.90;71.63
33697;BME280;20031;43.416;23.232;2022-11-11T07:34:56;101489.44;;;15.19;70.21
33697;BME280;20031;43.416;23.232;2022-11-11T07:37:21;101489.56;;;15.35;69.25
33697;BME280;20031;43.416;23.232;2022-11-11T07:39:47;101494.50;;;15.38;68.00
33697;BME280;20031;43.416;23.232;2022-11-11T07:42:12;101489.66;;;15.51;67.83
33697;BME280;20031;43.416;23.232;2022-11-11T07:44:38;101482.72;;;15.67;65.97
33697;BME280;20031;43.416;23.232;2022-11-11T07:47:03;101491.63;;;15.49;65.35
33697;BME280;20031;43.416;23.232;2022-11-11T07:49:29;101490.13;;;15.21;65.82
33697;BME280;20031;43.416;23.232;2022-11-11T07:51:54;101488.34;;;15.04;66.63
33697;BME280;20031;43.416;23.232;2022-11-11T07:54:20;101478.69;;;14.87;67.21
33697;BME280;20031;43.416;23.232;2022-11-11T07:56:45;101484.38;;;14.83;67.65
33697;BME280;20031;43.416;23.232;2022-11-11T07:59:11;101486.25;;;14.73;68.05
33697;BME280;20031;43.416;23.232;2022-11-11T08:01:36;101477.94;;;14.78;68.22
33697;BME280;20031;43.416;23.232;2022-11-11T08:04:02;101474.03;;;14.81;68.67
33697;BME280;20031;43.416;23.232;2022-11-11T08:06:27;101476.41;;;14.92;68.10
33697;BME280;20031;43.416;23.232;2022-11-11T08:08:52;101482.03;;;14.97;67.60
33697;BME280;20031;43.416;23.232;2022-11-11T08:11:19;101466.16;;;14.99;67.17
33697;BME280;20031;43.416;23.232;2022-11-11T08:14:04;101478.41;;;14.98;66.63
33697;BME280;20031;43.416;23.232;2022-11-11T08:16:30;101489.69;;;14.91;66.68
33697;BME280;20031;43.416;23.232;2022-11-11T08:18:55;101478.44;;;14.81;66.04
33697;BME280;20031;43.416;23.232;2022-11-11T08:21:23;101485.09;;;14.76;66.05
33697;BME280;20031;43.416;23.232;2022-11-11T08:23:49;101485.72;;;14.70;65.99
33697;BME280;20031;43.416;23.232;2022-11-11T08:26:16;101481.06;;;14.64;65.82
33697;BME280;20031;43.416;23.232;2022-11-11T08:28:43;101494.47;;;14.61;65.99
33697;BME280;20031;43.416;23.232;2022-11-11T08:31:08;101490.50;;;14.57;65.85
33697;BME280;20031;43.416;23.232;2022-11-11T08:33:35;101488.03;;;14.55;65.63
33697;BME280;20031;43.416;23.232;2022-11-11T08:36:01;101484.59;;;14.55;65.54
33697;BME280;20031;43.416;23.232;2022-11-11T08:38:27;101498.53;;;14.55;63.94
33697;BME280;20031;43.416;23.232;2022-11-11T08:40:53;101493.13;;;14.57;63.65
33697;BME280;20031;43.416;23.232;2022-11-11T08:43:19;101497.72;;;14.55;63.23
33697;BME280;20031;43.416;23.232;2022-11-11T08:45:46;101501.28;;;14.54;62.74
33697;BME280;20031;43.416;23.232;2022-11-11T08:48:12;101504.06;;;14.52;62.51
33697;BME280;20031;43.416;23.232;2022-11-11T08:50:39;101507.78;;;14.50;62.36
33697;BME280;20031;43.416;23.232;2022-11-11T08:53:08;101501.88;;;14.48;62.92
33697;BME280;20031;43.416;23.232;2022-11-11T08:55:35;101515.00;;;14.48;63.16
33697;BME280;20031;43.416;23.232;2022-11-11T08:58:03;101501.88;;;14.48;63.30
33697;BME280;20031;43.416;23.232;2022-11-11T09:00:29;101507.28;;;14.46;64.24
33697;BME280;20031;43.416;23.232;2022-11-11T09:03:00;101502.03;;;14.46;63.93
33697;BME280;20031;43.416;23.232;2022-11-11T09:05:26;101503.81;;;14.46;63.98
33697;BME280;20031;43.416;23.232;2022-11-11T09:07:51;101505.78;;;14.44;63.78
33697;BME280;20031;43.416;23.232;2022-11-11T09:10:20;101506.88;;;14.41;64.15
33697;BME280;20031;43.416;23.232;2022-11-11T09:12:46;101506.88;;;14.41;64.41
33697;BME280;20031;43.416;23.232;2022-11-11T09:15:11;101506.22;;;14.39;64.49
33697;BME280;20031;43.416;23.232;2022-11-11T09:17:37;101501.13;;;14.38;64.22
33697;BME280;20031;43.416;23.232;2022-11-11T09:20:03;101512.56;;;14.37;64.23
33697;BME280;20031;43.416;23.232;2022-11-11T09:22:29;101514.38;;;14.36;64.56
33697;BME280;20031;43.416;23.232;2022-11-11T09:24:54;101502.75;;;14.39;63.42
33697;BME280;20031;43.416;23.232;2022-11-11T09:27:21;101517.91;;;14.45;62.58
33697;BME280;20031;43.416;23.232;2022-11-11T09:29:47;101505.19;;;14.50;62.02
33697;BME280;20031;43.416;23.232;2022-11-11T09:32:13;101503.09;;;14.53;61.52
33697;BME280;20031;43.416;23.232;2022-11-11T09:34:38;101501.13;;;14.55;61.74
33697;BME280;20031;43.416;23.232;2022-11-11T09:37:03;101499.34;;;14.56;61.85
33697;BME280;20031;43.416;23.232;2022-11-11T09:39:29;101499.47;;;14.54;61.61
33697;BME280;20031;43.416;23.232;2022-11-11T09:44:59;101495.91;;;14.55;61.60
33697;BME280;20031;43.416;23.232;2022-11-11T09:50:23;101486.06;;;14.57;61.26
33697;BME280;20031;43.416;23.232;2022-11-11T09:53:03;101481.97;;;14.55;61.14
33697;BME280;20031;43.416;23.232;2022-11-11T09:55:36;101476.72;;;14.55;61.32
33697;BME280;20031;43.416;23.232;2022-11-11T09:58:10;101480.00;;;14.57;61.00
33697;BME280;20031;43.416;23.232;2022-11-11T10:00:41;101475.44;;;14.59;60.55
33697;BME280;20031;43.416;23.232;2022-11-11T10:03:17;101470.50;;;14.56;61.20
33697;BME280;20031;43.416;23.232;2022-11-11T10:06:05;101468.56;;;14.58;61.28
33697;BME280;20031;43.416;23.232;2022-11-11T10:11:53;101461.81;;;14.55;61.68
33697;BME280;20031;43.416;23.232;2022-11-11T10:14:27;101451.69;;;14.60;61.14
33697;BME280;20031;43.416;23.232;2022-11-11T10:17:06;101467.16;;;14.63;60.66
33697;BME280;20031;43.416;23.232;2022-11-11T10:19:49;101463.38;;;14.66;60.87
33697;BME280;20031;43.416;23.232;2022-11-11T10:22:30;101462.25;;;14.68;60.46
33697;BME280;20031;43.416;23.232;2022-11-11T10:25:25;101459.19;;;14.73;60.42
33697;BME280;20031;43.416;23.232;2022-11-11T10:27:54;101451.00;;;14.76;59.98
33697;BME280;20031;43.416;23.232;2022-11-11T10:30:28;101458.72;;;14.77;60.04
33697;BME280;20031;43.416;23.232;2022-11-11T10:33:09;101462.34;;;14.76;60.10
33697;BME280;20031;43.416;23.232;2022-11-11T10:35:38;101457.25;;;14.75;59.92
33697;BME280;20031;43.416;23.232;2022-11-11T10:41:00;101466.09;;;14.74;59.56
33697;BME280;20031;43.416;23.232;2022-11-11T10:43:28;101456.78;;;14.79;59.42
33697;BME280;20031;43.416;23.232;2022-11-11T10:48:47;101458.31;;;14.81;58.88
33697;BME280;20031;43.416;23.232;2022-11-11T10:51:16;101455.78;;;14.80;59.33
33697;BME280;20031;43.416;23.232;2022-11-11T10:53:58;101456.94;;;14.78;59.78
33697;BME280;20031;43.416;23.232;2022-11-11T10:59:30;101452.13;;;14.56;62.00
33697;BME280;20031;43.416;23.232;2022-11-11T11:04:40;101458.19;;;14.39;63.75
33697;BME280;20031;43.416;23.232;2022-11-11T11:07:10;101455.88;;;14.36;63.91
33697;BME280;20031;43.416;23.232;2022-11-11T11:09:43;101452.59;;;14.34;64.21
33697;BME280;20031;43.416;23.232;2022-11-11T11:15:27;101449.00;;;14.35;64.06
33697;BME280;20031;43.416;23.232;2022-11-11T11:18:04;101444.72;;;14.34;64.14
33697;BME280;20031;43.416;23.232;2022-11-11T11:20:30;101449.97;;;14.34;64.26
33697;BME280;20031;43.416;23.232;2022-11-11T11:22:57;101449.81;;;14.35;64.10
33697;BME280;20031;43.416;23.232;2022-11-11T11:25:29;101454.09;;;14.36;64.14
33697;BME280;20031;43.416;23.232;2022-11-11T11:28:06;101441.81;;;14.37;64.25
33697;BME280;20031;43.416;23.232;2022-11-11T11:30:32;101443.47;;;14.38;63.88
33697;BME280;20031;43.416;23.232;2022-11-11T11:33:03;101431.00;;;14.40;63.78
33697;BME280;20031;43.416;23.232;2022-11-11T11:35:35;101438.72;;;14.41;63.87
33697;BME280;20031;43.416;23.232;2022-11-11T11:38:01;101438.72;;;14.41;63.59
33697;BME280;20031;43.416;23.232;2022-11-11T11:40:46;101435.44;;;14.39;64.07
33697;BME280;20031;43.416;23.232;2022-11-11T11:43:36;101434.47;;;14.40;64.01
33697;BME280;20031;43.416;23.232;2022-11-11T11:46:13;101430.72;;;14.43;64.38
33697;BME280;20031;43.416;23.232;2022-11-11T11:48:52;101430.94;;;14.49;63.72
33697;BME280;20031;43.416;23.232;2022-11-11T12:00:16;101425.47;;;14.78;61.28
33697;BME280;20031;43.416;23.232;2022-11-11T12:03:11;101418.66;;;14.84;60.80
33697;BME280;20031;43.416;23.232;2022-11-11T12:13:49;101417.06;;;14.91;60.25
33697;BME280;20031;43.416;23.232;2022-11-11T12:16:44;101416.22;;;14.91;60.43
33697;BME280;20031;43.416;23.232;2022-11-11T12:22:17;101415.59;;;14.97;59.92
33697;BME280;20031;43.416;23.232;2022-11-11T12:27:58;101419.41;;;15.02;59.15
33697;BME280;20031;43.416;23.232;2022-11-11T12:30:26;101417.78;;;15.01;59.52
33697;BME280;20031;43.416;23.232;2022-11-11T12:33:10;101417.91;;;15.00;59.50
33697;BME280;20031;43.416;23.232;2022-11-11T12:35:47;101412.16;;;14.96;59.96
33697;BME280;20031;43.416;23.232;2022-11-11T12:41:13;101407.78;;;15.05;59.18
33697;BME280;20031;43.416;23.232;2022-11-11T12:43:51;101408.31;;;15.08;58.62
33697;BME280;20031;43.416;23.232;2022-11-11T12:49:42;101404.41;;;15.12;58.52
33697;BME280;20031;43.416;23.232;2022-11-11T12:54:58;101400.50;;;15.16;58.07
33697;BME280;20031;43.416;23.232;2022-11-11T13:00:20;101403.81;;;15.18;57.70
33697;BME280;20031;43.416;23.232;2022-11-11T13:03:09;101390.00;;;15.16;58.23
33697;BME280;20031;43.416;23.232;2022-11-11T13:16:24;101393.72;;;15.31;57.26
33697;BME280;20031;43.416;23.232;2022-11-11T13:19:09;101398.03;;;15.40;56.62
33697;BME280;20031;43.416;23.232;2022-11-11T13:21:58;101397.72;;;15.43;56.48
33697;BME280;20031;43.416;23.232;2022-11-11T13:24:25;101404.09;;;15.40;56.92
33697;BME280;20031;43.416;23.232;2022-11-11T13:32:19;101400.19;;;15.44;56.74
33697;BME280;20031;43.416;23.232;2022-11-11T13:34:49;101405.94;;;15.48;56.47
33697;BME280;20031;43.416;23.232;2022-11-11T13:37:27;101412.84;;;15.49;56.71
33697;BME280;20031;43.416;23.232;2022-11-11T13:40:06;101412.84;;;15.49;56.99
33697;BME280;20031;43.416;23.232;2022-11-11T13:42:38;101407.09;;;15.45;57.15
33697;BME280;20031;43.416;23.232;2022-11-11T13:45:07;101406.56;;;15.42;57.44
33697;BME280;20031;43.416;23.232;2022-11-11T13:47:35;101412.94;;;15.39;57.70
33697;BME280;20031;43.416;23.232;2022-11-11T13:50:08;101418.03;;;15.33;57.76
33697;BME280;20031;43.416;23.232;2022-11-11T13:53:03;101421.28;;;15.27;58.48
33697;BME280;20031;43.416;23.232;2022-11-11T13:55:36;101428.13;;;15.20;58.77
33697;BME280;20031;43.416;23.232;2022-11-11T13:58:04;101441.75;;;15.06;61.48
33697;BME280;20031;43.416;23.232;2022-11-11T14:00:34;101437.22;;;14.91;63.57
33697;BME280;20031;43.416;23.232;2022-11-11T14:05:38;101444.88;;;14.67;64.73
33697;BME280;20031;43.416;23.232;2022-11-11T14:08:05;101443.97;;;14.59;65.51
33697;BME280;20031;43.416;23.232;2022-11-11T14:15:49;101445.22;;;14.37;66.61
33697;BME280;20031;43.416;23.232;2022-11-11T14:20:44;101463.22;;;14.32;67.08
33697;BME280;20031;43.416;23.232;2022-11-11T14:25:45;101455.09;;;14.26;67.89
33697;BME280;20031;43.416;23.232;2022-11-11T14:33:43;101478.22;;;14.13;69.33
33697;BME280;20031;43.416;23.232;2022-11-11T14:39:00;101480.94;;;13.85;71.95
33697;BME280;20031;43.416;23.232;2022-11-11T14:52:34;101480.69;;;13.42;75.92
33697;BME280;20031;43.416;23.232;2022-11-11T14:59:59;101494.09;;;13.30;77.09
33697;BME280;20031;43.416;23.232;2022-11-11T15:02:35;101494.63;;;13.24;77.34
33697;BME280;20031;43.416;23.232;2022-11-11T15:05:04;101493.53;;;13.17;77.72